createdAt,value
2019-03-19T00:02:46.906Z,6.57
2019-03-19T00:07:48.613Z,6.57
2019-03-19T00:12:50.189Z,6.20
2019-03-19T00:17:51.747Z,5.63
2019-03-19T00:22:53.511Z,7.73
2019-03-19T00:27:55.067Z,7.37
2019-03-19T00:32:57.356Z,8.00
2019-03-19T00:37:59.059Z,8.60
2019-03-19T00:43:00.904Z,8.57
2019-03-19T00:48:03.109Z,7.97
2019-03-19T00:53:04.784Z,7.67
2019-03-19T00:58:06.335Z,6.83
2019-03-19T01:03:08.181Z,7.67
2019-03-19T01:08:09.819Z,5.63
2019-03-19T01:13:11.373Z,7.57
2019-03-19T01:18:12.960Z,6.43
2019-03-19T01:23:14.812Z,7.43
2019-03-19T01:28:16.546Z,8.90
2019-03-19T01:33:18.083Z,7.23
2019-03-19T01:38:19.635Z,6.03
2019-03-19T01:43:21.180Z,5.73
2019-03-19T01:48:22.841Z,7.53
2019-03-19T01:53:24.397Z,7.90
2019-03-19T01:58:25.999Z,6.97
2019-03-19T02:03:27.607Z,7.37
2019-03-19T02:08:29.294Z,6.43
2019-03-19T02:13:30.853Z,6.03
2019-03-19T02:18:32.428Z,6.47
2019-03-19T02:23:33.986Z,7.23
2019-03-19T02:28:35.631Z,8.03
2019-03-19T02:33:37.194Z,6.87
2019-03-19T02:38:38.806Z,7.70
2019-03-19T02:43:40.348Z,8.27
2019-03-19T02:48:42.005Z,7.93
2019-03-19T02:53:43.564Z,6.93
2019-03-19T02:58:45.214Z,6.77
2019-03-19T03:03:46.870Z,6.97
2019-03-19T03:08:49.577Z,7.00
2019-03-19T03:13:51.234Z,6.77
2019-03-19T03:18:52.825Z,7.23
2019-03-19T03:23:54.392Z,8.10
2019-03-19T03:28:55.935Z,7.27
2019-03-19T03:33:57.513Z,8.57
2019-03-19T03:38:59.068Z,9.97
2019-03-19T03:44:00.617Z,7.47
2019-03-19T03:49:02.739Z,8.30
2019-03-19T03:54:04.299Z,8.27
2019-03-19T03:59:06.243Z,8.50
2019-03-19T04:04:07.794Z,8.20
2019-03-19T04:09:09.671Z,6.40
2019-03-19T04:14:11.322Z,7.93
2019-03-19T04:19:13.107Z,7.23
2019-03-19T04:24:14.676Z,7.13
2019-03-19T04:29:16.237Z,6.40
2019-03-19T04:34:17.794Z,6.73
2019-03-19T04:39:19.343Z,7.03
2019-03-19T04:44:20.943Z,8.50
2019-03-19T04:49:22.631Z,8.03
2019-03-19T04:54:24.230Z,8.93
2019-03-19T04:59:25.893Z,9.10
2019-03-19T05:04:27.482Z,9.47
2019-03-19T05:09:29.035Z,8.53
2019-03-19T05:14:30.663Z,9.20
2019-03-19T05:19:32.552Z,8.73
2019-03-19T05:24:34.114Z,10.17
2019-03-19T05:29:35.661Z,10.33
2019-03-19T05:34:37.215Z,9.20
2019-03-19T05:39:38.768Z,9.63
2019-03-19T05:44:40.600Z,9.43
2019-03-19T05:49:42.273Z,10.37
2019-03-19T05:54:46.031Z,10.17
2019-03-19T05:59:51.694Z,10.20
2019-03-19T06:04:54.039Z,10.87
2019-03-19T06:09:55.601Z,9.60
2019-03-19T06:14:57.201Z,8.63
2019-03-19T06:19:58.765Z,11.40
2019-03-19T06:25:00.431Z,10.77
2019-03-19T06:30:08.889Z,12.07
2019-03-19T06:35:11.887Z,12.47
2019-03-19T06:40:18.368Z,11.20
2019-03-19T06:45:22.891Z,9.93
2019-03-19T06:50:24.253Z,8.40
2019-03-19T06:55:25.803Z,8.60
2019-03-19T07:00:27.439Z,8.27
2019-03-19T07:05:29.103Z,10.20
2019-03-19T07:10:31.180Z,6.47
2019-03-19T07:15:32.792Z,6.23
2019-03-19T07:20:34.358Z,5.53
2019-03-19T07:25:35.913Z,6.10
2019-03-19T07:30:37.570Z,7.27
2019-03-19T07:35:42.179Z,6.40
2019-03-19T07:40:43.998Z,5.80
2019-03-19T07:45:45.621Z,7.03
2019-03-19T07:50:47.261Z,6.93
2019-03-19T07:55:48.871Z,6.93
2019-03-19T08:00:50.420Z,7.87
2019-03-19T08:05:51.980Z,8.13
2019-03-19T08:10:54.065Z,8.27
2019-03-19T08:15:55.822Z,7.70
2019-03-19T08:20:57.431Z,8.53
2019-03-19T08:25:58.991Z,7.63
2019-03-19T08:31:00.546Z,7.47
2019-03-19T08:36:09.293Z,8.27
2019-03-19T08:41:05.570Z,7.83
2019-03-19T08:46:07.131Z,6.00
2019-03-19T08:51:08.851Z,8.23
2019-03-19T08:56:10.797Z,7.90
2019-03-19T09:01:12.445Z,5.60
2019-03-19T09:06:14.408Z,6.47
2019-03-19T09:11:15.964Z,5.87
2019-03-19T09:16:17.615Z,5.60
2019-03-19T09:21:19.238Z,5.73
2019-03-19T09:26:20.792Z,6.70
2019-03-19T09:31:22.345Z,6.50
2019-03-19T09:36:25.813Z,6.73
2019-03-19T09:41:27.374Z,7.70
2019-03-19T09:46:29.344Z,7.60
2019-03-19T09:51:31.064Z,7.50
2019-03-19T09:56:33.727Z,5.67
2019-03-19T10:01:35.358Z,6.53
2019-03-19T10:06:36.920Z,6.60
2019-03-19T10:11:38.591Z,7.20
2019-03-19T10:16:40.142Z,6.67
2019-03-19T10:21:41.990Z,6.67
2019-03-19T10:26:43.551Z,6.87
2019-03-19T10:31:45.145Z,6.93
2019-03-19T10:36:46.691Z,8.07
2019-03-19T10:41:48.244Z,8.47
2019-03-19T10:46:49.791Z,7.70
2019-03-19T10:51:51.492Z,7.70
2019-03-19T10:56:53.147Z,6.50
2019-03-19T11:01:54.738Z,6.10
2019-03-19T11:06:56.944Z,6.63
2019-03-19T11:11:58.498Z,6.43
2019-03-19T11:17:00.053Z,6.43
2019-03-19T11:22:01.610Z,7.60
2019-03-19T11:27:03.407Z,7.67
2019-03-19T11:32:05.964Z,7.53
2019-03-19T11:37:07.871Z,4.70
2019-03-19T11:42:09.535Z,4.27
2019-03-19T11:47:12.190Z,4.90
2019-03-19T11:52:13.958Z,5.03
2019-03-19T11:57:15.499Z,5.07
2019-03-19T12:02:25.576Z,4.97
2019-03-19T12:07:20.904Z,6.37
2019-03-19T12:12:22.561Z,5.83
2019-03-19T12:17:24.120Z,4.90
2019-03-19T12:22:26.017Z,6.07
2019-03-19T12:27:27.570Z,6.13
2019-03-19T12:32:29.122Z,5.40
2019-03-19T12:37:30.752Z,5.40
2019-03-19T12:42:32.320Z,3.73
2019-03-19T12:47:33.908Z,3.23
2019-03-19T12:52:35.705Z,3.33
2019-03-19T12:57:37.274Z,3.17
2019-03-19T13:02:38.865Z,3.47
2019-03-19T13:07:40.429Z,4.67
2019-03-19T13:12:41.977Z,3.87
2019-03-19T13:17:43.979Z,4.30
2019-03-19T13:22:46.984Z,5.03
2019-03-19T13:27:48.857Z,5.40
2019-03-19T13:32:51.408Z,7.00
2019-03-19T13:37:53.223Z,3.83
2019-03-19T13:42:54.809Z,4.53
2019-03-19T13:47:56.365Z,4.97
2019-03-19T13:52:58.026Z,3.97
2019-03-19T13:57:59.581Z,7.03
2019-03-19T14:03:01.146Z,8.70
2019-03-19T14:08:03.075Z,14.70
2019-03-19T14:13:04.986Z,6.00
2019-03-19T14:18:06.541Z,16.43
2019-03-19T14:23:08.201Z,4.97
2019-03-19T14:28:09.868Z,6.20
2019-03-19T14:33:11.411Z,5.87
2019-03-19T14:38:12.980Z,4.53
2019-03-19T14:43:15.081Z,5.10
2019-03-19T14:48:16.673Z,5.23
2019-03-19T14:53:18.308Z,7.23
2019-03-19T14:58:19.993Z,8.33
2019-03-19T15:03:21.658Z,7.23
2019-03-19T15:08:25.423Z,7.90
2019-03-19T15:13:26.667Z,9.60
2019-03-19T15:18:28.236Z,9.33
2019-03-19T15:23:29.892Z,6.63
2019-03-19T15:28:31.526Z,7.23
2019-03-19T15:33:33.085Z,6.60
2019-03-19T15:38:34.740Z,5.03
2019-03-19T15:43:36.670Z,6.60
2019-03-19T15:48:38.341Z,7.97
2019-03-19T15:53:41.060Z,6.27
2019-03-19T15:58:42.616Z,7.40
2019-03-19T16:03:44.745Z,8.33
2019-03-19T16:08:46.594Z,7.80
2019-03-19T16:13:48.196Z,8.17
2019-03-19T16:18:49.954Z,13.10
2019-03-19T16:23:53.156Z,15.97
2019-03-19T16:28:55.736Z,18.23
2019-03-19T16:33:59.140Z,21.23
2019-03-19T16:39:04.861Z,26.53
2019-03-19T16:44:06.421Z,30.30
2019-03-19T16:49:08.042Z,57.30
2019-03-19T16:54:11.004Z,30.57
2019-03-19T16:59:15.641Z,24.23
2019-03-19T17:04:19.320Z,28.03
2019-03-19T17:09:21.138Z,32.40
2019-03-19T17:14:24.144Z,80.33
2019-03-19T17:19:28.282Z,125.40
2019-03-19T17:24:31.837Z,68.27
2019-03-19T17:29:35.716Z,65.73
2019-03-19T17:34:38.928Z,60.37
2019-03-19T17:39:40.516Z,75.33
2019-03-19T17:44:44.283Z,38.87
2019-03-19T17:49:47.990Z,40.53
2019-03-19T17:54:50.211Z,45.23
2019-03-19T17:59:53.640Z,31.03
2019-03-19T18:04:56.644Z,34.80
2019-03-19T18:09:59.549Z,49.27
2019-03-19T18:15:03.624Z,45.00
2019-03-19T18:20:09.656Z,36.77
2019-03-19T18:25:13.467Z,64.87
2019-03-19T18:30:22.070Z,107.47
2019-03-19T18:35:23.632Z,241.50
2019-03-19T18:40:25.193Z,284.30
2019-03-19T18:45:26.745Z,191.57
2019-03-19T18:50:28.374Z,332.77
2019-03-19T18:55:30.012Z,165.43
2019-03-19T19:00:31.680Z,113.37
2019-03-19T19:05:33.345Z,65.20
2019-03-19T19:10:37.328Z,55.47
2019-03-19T19:15:40.798Z,41.00
2019-03-19T19:20:44.328Z,27.63
2019-03-19T19:25:47.321Z,33.83
2019-03-19T19:30:50.041Z,30.00
2019-03-19T19:35:51.872Z,28.63
2019-03-19T19:40:56.663Z,30.87
2019-03-19T19:45:58.387Z,31.20
2019-03-19T19:51:01.306Z,34.97
2019-03-19T19:56:04.405Z,38.10
2019-03-19T20:01:09.148Z,43.30
2019-03-19T20:06:10.721Z,44.23
2019-03-19T20:11:14.208Z,41.03
2019-03-19T20:16:18.338Z,32.47
2019-03-19T20:21:20.312Z,42.03
2019-03-19T20:26:23.841Z,61.47
2019-03-19T20:31:27.008Z,48.13
2019-03-19T20:36:28.870Z,40.87
2019-03-19T20:41:31.247Z,40.60
2019-03-19T20:46:35.943Z,45.87
2019-03-19T20:51:39.182Z,47.97
2019-03-19T20:56:42.226Z,49.73
2019-03-19T21:01:44.010Z,55.20
2019-03-19T21:06:47.576Z,58.10
2019-03-19T21:11:53.241Z,49.20
2019-03-19T21:16:57.470Z,53.07
2019-03-19T21:22:00.719Z,55.87
2019-03-19T21:27:02.488Z,60.63
2019-03-19T21:32:04.201Z,61.10
2019-03-19T21:37:06.853Z,62.03
2019-03-19T21:42:09.044Z,57.00
2019-03-19T21:47:10.733Z,55.13
2019-03-19T21:52:14.243Z,45.33
2019-03-19T21:57:15.994Z,47.07
2019-03-19T22:02:18.854Z,45.83
2019-03-19T22:07:20.432Z,44.83
2019-03-19T22:12:22.327Z,47.27
2019-03-19T22:17:25.271Z,50.53
2019-03-19T22:22:28.371Z,57.07
2019-03-19T22:27:31.556Z,52.43
2019-03-19T22:32:34.660Z,55.13
2019-03-19T22:37:36.261Z,52.63
2019-03-19T22:42:38.024Z,62.03
2019-03-19T22:47:40.150Z,60.93
2019-03-19T22:52:43.396Z,64.93
2019-03-19T22:57:45.302Z,63.13
2019-03-19T23:02:47.242Z,63.13
2019-03-19T23:07:49.139Z,66.97
2019-03-19T23:12:50.868Z,60.23
2019-03-19T23:17:52.630Z,63.77
2019-03-19T23:22:54.307Z,62.40
2019-03-19T23:27:55.910Z,97.77
2019-03-19T23:32:57.599Z,83.87
2019-03-19T23:37:59.151Z,65.60
2019-03-19T23:43:00.963Z,45.77
2019-03-19T23:48:02.870Z,47.07
2019-03-19T23:53:04.527Z,43.97
2019-03-19T23:58:06.164Z,59.93
